createdAt,value
2019-02-14T00:04:13.392Z,44.18
2019-02-14T00:09:16.090Z,44.82
2019-02-14T00:14:13.211Z,43.53
2019-02-14T00:19:26.308Z,39.32
2019-02-14T00:24:25.106Z,39.88
2019-02-14T00:29:33.351Z,44.15
2019-02-14T00:34:41.883Z,42.59
2019-02-14T00:39:50.157Z,43.34
2019-02-14T00:44:58.510Z,44.60
2019-02-14T00:50:06.685Z,43.94
2019-02-14T00:55:14.985Z,44.22
2019-02-14T01:00:23.271Z,44.85
2019-02-14T01:05:33.576Z,46.26
2019-02-14T01:10:39.248Z,47.38
2019-02-14T01:15:47.657Z,48.25
2019-02-14T01:20:55.869Z,48.96
2019-02-14T01:26:04.215Z,50.28
2019-02-14T01:31:12.522Z,52.80
2019-02-14T01:36:20.870Z,55.36
2019-02-14T01:41:29.166Z,52.28
2019-02-14T01:46:37.560Z,50.86
2019-02-14T01:51:45.833Z,52.67
2019-02-14T01:56:54.101Z,51.09
2019-02-14T02:02:02.376Z,51.69
2019-02-14T02:07:10.580Z,52.55
2019-02-14T02:12:18.905Z,49.72
2019-02-14T02:17:27.236Z,55.28
2019-02-14T02:22:35.665Z,53.62
2019-02-14T02:27:43.958Z,54.92
2019-02-14T02:32:52.142Z,52.18
2019-02-14T02:38:00.438Z,52.74
2019-02-14T02:43:08.745Z,54.41
2019-02-14T02:48:17.123Z,57.77
2019-02-14T02:53:25.316Z,54.39
2019-02-14T02:58:33.621Z,57.35
2019-02-14T03:03:41.889Z,55.84
2019-02-14T03:08:50.215Z,54.94
2019-02-14T03:13:58.466Z,55.78
2019-02-14T03:19:06.664Z,54.54
2019-02-14T03:24:14.858Z,55.73
2019-02-14T03:29:23.208Z,56.79
2019-02-14T03:34:31.349Z,53.79
2019-02-14T03:39:39.644Z,55.80
2019-02-14T03:44:47.723Z,60.91
2019-02-14T03:49:55.998Z,58.13
2019-02-14T03:55:04.117Z,57.49
2019-02-14T04:00:12.444Z,59.11
2019-02-14T04:05:20.774Z,57.56
2019-02-14T04:10:28.978Z,57.90
2019-02-14T04:15:37.169Z,59.97
2019-02-14T04:20:45.432Z,61.08
2019-02-14T04:25:53.673Z,61.81
2019-02-14T04:31:02.096Z,63.21
2019-02-14T04:36:10.312Z,61.06
2019-02-14T04:41:19.564Z,62.78
2019-02-14T04:46:28.337Z,59.25
2019-02-14T04:51:36.722Z,62.55
2019-02-14T04:56:45.242Z,57.38
2019-02-14T05:01:53.578Z,64.21
2019-02-14T05:07:02.987Z,61.24
2019-02-14T05:12:11.311Z,61.58
2019-02-14T05:17:19.488Z,61.37
2019-02-14T05:22:27.753Z,62.05
2019-02-14T05:27:37.532Z,64.63
2019-02-14T05:32:45.940Z,63.63
2019-02-14T05:37:54.213Z,63.80
2019-02-14T05:43:02.623Z,61.06
2019-02-14T05:48:10.801Z,66.07
2019-02-14T05:53:19.632Z,63.57
2019-02-14T05:58:28.855Z,65.80
2019-02-14T06:03:37.276Z,66.08
2019-02-14T06:08:45.576Z,69.36
2019-02-14T06:13:54.004Z,64.10
2019-02-14T06:19:02.210Z,62.66
2019-02-14T06:24:10.394Z,68.25
2019-02-14T06:29:18.721Z,65.08
2019-02-14T06:34:27.081Z,63.81
2019-02-14T06:39:35.320Z,63.98
2019-02-14T06:44:43.520Z,66.61
2019-02-14T06:49:51.785Z,66.27
2019-02-14T06:55:01.938Z,60.09
2019-02-14T07:00:11.229Z,62.60
2019-02-14T07:05:20.084Z,62.62
2019-02-14T07:10:28.560Z,62.47
2019-02-14T07:15:37.483Z,60.23
2019-02-14T07:20:45.781Z,64.25
2019-02-14T07:25:54.189Z,59.40
2019-02-14T07:31:02.382Z,61.39
2019-02-14T07:36:10.790Z,59.92
2019-02-14T07:41:18.949Z,60.49
2019-02-14T07:46:27.435Z,62.84
2019-02-14T07:51:35.694Z,57.43
2019-02-14T07:56:45.353Z,57.98
2019-02-14T08:01:53.726Z,57.84
2019-02-14T08:07:03.033Z,61.22
2019-02-14T08:12:11.708Z,58.95
2019-02-14T08:17:20.149Z,55.58
2019-02-14T08:22:28.493Z,54.66
2019-02-14T08:27:37.161Z,58.92
2019-02-14T08:29:11.549Z,53.94
2019-02-14T08:34:13.753Z,54.54
2019-02-14T08:39:22.630Z,52.89
2019-02-14T08:44:41.683Z,53.28
2019-02-14T08:49:40.675Z,51.54
2019-02-14T08:54:48.943Z,50.67
2019-02-14T08:59:57.064Z,50.36
2019-02-14T09:05:05.582Z,50.02
2019-02-14T09:10:14.095Z,50.16
2019-02-14T09:15:23.614Z,50.21
2019-02-14T09:20:33.163Z,49.32
2019-02-14T09:25:44.017Z,46.18
2019-02-14T09:30:42.321Z,45.19
2019-02-14T09:35:50.476Z,43.70
2019-02-14T09:41:00.691Z,46.62
2019-02-14T09:45:59.329Z,47.87
2019-02-14T09:51:08.187Z,42.46
2019-02-14T09:56:17.190Z,42.05
2019-02-14T10:01:26.646Z,43.75
2019-02-14T10:06:36.751Z,43.60
2019-02-14T10:11:42.356Z,43.81
2019-02-14T10:16:43.013Z,41.79
2019-02-14T10:21:51.700Z,43.07
2019-02-14T10:27:01.913Z,43.81
2019-02-14T10:32:10.000Z,40.94
2019-02-14T10:37:18.068Z,43.42
2019-02-14T10:42:26.191Z,42.21
2019-02-14T10:47:35.548Z,43.57
2019-02-14T10:52:44.088Z,41.64
2019-02-14T10:57:52.616Z,41.40
2019-02-14T11:03:00.945Z,41.44
2019-02-14T11:08:08.997Z,40.54
2019-02-14T11:13:16.929Z,37.16
2019-02-14T11:18:24.988Z,39.29
2019-02-14T11:23:33.829Z,36.07
2019-02-14T11:28:42.390Z,35.16
2019-02-14T11:33:50.964Z,35.46
2019-02-14T11:38:59.555Z,35.67
2019-02-14T11:44:07.610Z,31.98
2019-02-14T11:49:15.811Z,32.20
2019-02-14T11:54:23.751Z,29.74
2019-02-14T11:59:32.190Z,29.33
2019-02-14T12:04:40.145Z,27.91
2019-02-14T12:09:48.245Z,25.35
2019-02-14T12:14:56.367Z,27.77
2019-02-14T12:20:04.443Z,25.38
2019-02-14T12:25:12.433Z,25.84
2019-02-14T12:30:20.891Z,23.72
2019-02-14T12:35:29.141Z,22.30
2019-02-14T12:40:37.982Z,21.15
2019-02-14T12:45:46.240Z,21.95
2019-02-14T12:50:54.329Z,21.90
2019-02-14T12:56:02.472Z,20.74
2019-02-14T13:01:10.614Z,19.89
2019-02-14T13:06:18.605Z,20.40
2019-02-14T13:11:26.625Z,20.30
2019-02-14T13:16:34.996Z,21.20
2019-02-14T13:21:42.953Z,16.12
2019-02-14T13:26:50.923Z,17.97
2019-02-14T13:31:59.082Z,15.84
2019-02-14T13:37:07.177Z,14.04
2019-02-14T13:42:15.861Z,15.31
2019-02-14T13:47:24.632Z,13.74
2019-02-14T13:52:32.804Z,14.22
2019-02-14T13:57:40.733Z,13.76
2019-02-14T14:02:49.179Z,14.22
2019-02-14T14:07:57.846Z,15.01
2019-02-14T14:13:06.122Z,14.48
2019-02-14T14:18:14.350Z,14.83
2019-02-14T14:23:22.988Z,14.79
2019-02-14T14:28:31.380Z,16.69
2019-02-14T14:33:39.694Z,14.59
2019-02-14T14:38:47.890Z,17.02
2019-02-14T14:43:56.910Z,16.04
2019-02-14T14:49:05.474Z,16.02
2019-02-14T14:54:14.295Z,14.21
2019-02-14T14:59:22.454Z,16.16
2019-02-14T15:04:30.707Z,14.88
2019-02-14T15:09:38.931Z,16.51
2019-02-14T15:14:47.166Z,17.20
2019-02-14T15:19:55.482Z,13.73
2019-02-14T15:25:03.683Z,15.47
2019-02-14T15:30:11.912Z,14.82
2019-02-14T15:35:19.869Z,14.61
2019-02-14T15:40:27.876Z,15.47
2019-02-14T15:45:35.962Z,14.90
2019-02-14T15:50:43.908Z,16.08
2019-02-14T15:55:51.893Z,16.18
2019-02-14T16:01:00.061Z,16.93
2019-02-14T16:06:08.322Z,17.01
2019-02-14T16:11:16.533Z,19.39
2019-02-14T16:16:24.746Z,18.50
2019-02-14T16:21:33.031Z,17.29
2019-02-14T16:26:41.764Z,17.96
2019-02-14T16:31:50.109Z,29.05
2019-02-14T16:36:58.467Z,20.81
2019-02-14T16:42:07.778Z,16.62
2019-02-14T16:47:16.208Z,17.06
2019-02-14T16:52:24.883Z,18.54
2019-02-14T16:57:33.527Z,19.29
2019-02-14T17:02:42.072Z,25.77
2019-02-14T17:07:50.323Z,18.39
2019-02-14T17:12:58.961Z,22.48
2019-02-14T17:18:07.072Z,21.48
2019-02-14T17:23:15.770Z,20.87
2019-02-14T17:28:24.093Z,23.04
2019-02-14T17:33:32.357Z,28.84
2019-02-14T17:38:41.059Z,22.77
2019-02-14T17:43:49.469Z,22.52
2019-02-14T17:48:57.729Z,22.23
2019-02-14T17:54:06.083Z,21.02
2019-02-14T17:59:14.296Z,20.42
2019-02-14T18:04:22.709Z,20.43
2019-02-14T18:09:30.841Z,21.69
2019-02-14T18:14:39.164Z,22.42
2019-02-14T18:19:47.423Z,22.30
2019-02-14T18:24:56.265Z,23.87
2019-02-14T18:30:04.487Z,21.38
2019-02-14T18:35:13.084Z,23.01
2019-02-14T18:40:21.201Z,22.61
2019-02-14T18:45:29.937Z,31.07
2019-02-14T18:50:38.142Z,25.50
2019-02-14T18:55:46.549Z,23.61
2019-02-14T19:00:54.845Z,27.22
2019-02-14T19:06:03.898Z,24.37
2019-02-14T19:11:15.197Z,22.33
2019-02-14T19:16:19.710Z,23.18
2019-02-14T19:21:27.814Z,27.77
2019-02-14T19:26:36.094Z,21.46
2019-02-14T19:31:44.208Z,22.19
2019-02-14T19:36:52.584Z,24.29
2019-02-14T19:42:00.766Z,22.86
2019-02-14T19:47:09.336Z,20.37
2019-02-14T19:52:17.413Z,21.09
2019-02-14T19:57:26.144Z,21.05
2019-02-14T20:02:34.299Z,19.59
2019-02-14T20:07:42.612Z,20.05
2019-02-14T20:12:51.061Z,17.61
2019-02-14T20:17:59.394Z,17.69
2019-02-14T20:23:07.804Z,21.53
2019-02-14T20:28:15.945Z,20.38
2019-02-14T20:33:24.075Z,20.24
2019-02-14T20:38:32.309Z,18.93
2019-02-14T20:43:40.446Z,23.74
2019-02-14T20:48:48.901Z,20.55
2019-02-14T20:53:57.465Z,19.22
2019-02-14T20:59:06.025Z,17.55
2019-02-14T21:04:14.060Z,17.62
2019-02-14T21:09:22.502Z,21.09
2019-02-14T21:14:30.695Z,20.19
2019-02-14T21:19:38.717Z,18.83
2019-02-14T21:24:47.016Z,17.03
2019-02-14T21:29:55.290Z,18.50
2019-02-14T21:35:04.124Z,20.13
2019-02-14T21:40:12.139Z,21.26
2019-02-14T21:45:20.462Z,21.32
2019-02-14T21:50:30.159Z,29.86
2019-02-14T21:55:38.201Z,18.60
2019-02-14T22:00:46.558Z,16.33
2019-02-14T22:05:54.531Z,19.32
2019-02-14T22:11:02.717Z,17.73
2019-02-14T22:16:10.668Z,17.45
2019-02-14T22:21:18.667Z,21.54
2019-02-14T22:26:26.618Z,18.70
2019-02-14T22:31:35.313Z,20.21
2019-02-14T22:36:43.191Z,17.23
2019-02-14T22:41:51.192Z,17.46
2019-02-14T22:46:59.781Z,16.97
2019-02-14T22:52:07.812Z,18.90
2019-02-14T22:57:15.795Z,17.12
2019-02-14T23:02:23.893Z,17.59
2019-02-14T23:07:32.050Z,17.45
2019-02-14T23:12:40.195Z,17.53
2019-02-14T23:17:48.148Z,19.44
2019-02-14T23:22:56.166Z,18.79
2019-02-14T23:28:09.651Z,18.11
2019-02-14T23:33:08.028Z,16.88
2019-02-14T23:38:17.568Z,16.25
2019-02-14T23:43:25.579Z,17.85
2019-02-14T23:48:32.470Z,17.93
2019-02-14T23:53:40.602Z,16.53
2019-02-14T23:58:48.605Z,18.12
